createdAt,value
2022-07-27T00:04:07.477Z,97827.56
2022-07-27T00:09:09.680Z,97825.91
2022-07-27T00:14:11.803Z,97817.38
2022-07-27T00:19:13.825Z,97818.19
2022-07-27T00:24:15.895Z,97809.09
2022-07-27T00:29:18.432Z,97805.94
2022-07-27T00:34:20.291Z,97812.00
2022-07-27T00:39:22.063Z,97808.81
2022-07-27T00:44:28.732Z,97812.47
2022-07-27T00:49:30.728Z,97813.25
2022-07-27T00:54:32.664Z,97813.09
2022-07-27T00:59:34.676Z,97819.31
2022-07-27T01:04:36.950Z,97830.63
2022-07-27T01:09:56.957Z,97828.38
2022-07-27T01:14:59.990Z,97835.63
2022-07-27T01:20:02.085Z,97836.59
2022-07-27T01:25:04.157Z,97831.34
2022-07-27T01:30:26.568Z,97832.75
2022-07-27T01:35:29.587Z,97833.31
2022-07-27T01:40:32.513Z,97834.34
2022-07-27T01:45:34.417Z,97828.47
2022-07-27T01:50:36.349Z,97838.31
2022-07-27T01:55:39.002Z,97828.78
2022-07-27T02:00:41.773Z,97822.34
2022-07-27T02:05:43.752Z,97818.19
2022-07-27T02:11:04.109Z,97809.53
2022-07-27T02:16:09.683Z,97811.25
2022-07-27T02:21:18.709Z,97834.00
2022-07-27T02:26:20.610Z,97813.22
2022-07-27T02:31:22.635Z,97813.81
2022-07-27T02:36:24.458Z,97813.09
2022-07-27T02:41:26.341Z,97809.72
2022-07-27T02:46:28.338Z,97819.81
2022-07-27T02:51:30.225Z,97818.22
2022-07-27T02:56:32.109Z,97816.78
2022-07-27T03:01:33.948Z,97821.59
2022-07-27T03:06:35.835Z,97825.41
2022-07-27T03:11:38.058Z,97832.19
2022-07-27T03:16:39.908Z,97832.06
2022-07-27T03:21:41.681Z,97826.44
2022-07-27T03:26:43.521Z,97817.81
2022-07-27T03:31:45.614Z,97833.00
2022-07-27T03:36:49.697Z,97830.97
2022-07-27T03:41:51.531Z,97830.06
2022-07-27T03:46:53.348Z,97842.00
2022-07-27T03:51:55.340Z,97828.19
2022-07-27T03:56:57.194Z,97828.25
2022-07-27T04:01:59.056Z,97847.19
2022-07-27T04:07:01.048Z,97838.13
2022-07-27T04:12:02.865Z,97845.16
2022-07-27T04:17:05.002Z,97840.09
2022-07-27T04:22:07.042Z,97845.28
2022-07-27T04:27:09.824Z,97861.78
2022-07-27T04:32:11.653Z,97869.84
2022-07-27T04:37:13.494Z,97854.53
2022-07-27T04:42:15.340Z,97862.00
2022-07-27T04:47:17.179Z,97862.63
2022-07-27T04:52:19.357Z,97869.50
2022-07-27T04:57:28.331Z,97878.78
2022-07-27T05:02:33.333Z,97878.59
2022-07-27T05:07:35.462Z,97888.50
2022-07-27T05:12:38.776Z,97895.75
2022-07-27T05:17:40.583Z,97899.75
2022-07-27T05:22:42.447Z,97910.00
2022-07-27T05:27:53.882Z,97922.31
2022-07-27T05:32:56.902Z,97925.91
2022-07-27T05:37:58.752Z,97923.34
2022-07-27T05:43:01.069Z,97927.34
2022-07-27T05:48:03.043Z,97926.94
2022-07-27T05:53:04.985Z,97927.38
2022-07-27T05:58:06.842Z,97926.81
2022-07-27T06:03:08.687Z,97933.63
2022-07-27T06:08:10.505Z,97931.06
2022-07-27T06:13:12.374Z,97929.22
2022-07-27T06:18:18.256Z,97927.81
2022-07-27T06:23:20.105Z,97944.56
2022-07-27T06:28:21.975Z,97943.94
2022-07-27T06:33:32.531Z,97958.47
2022-07-27T06:38:35.077Z,97971.97
2022-07-27T06:43:36.980Z,97964.50
2022-07-27T06:48:42.157Z,97972.38
2022-07-27T06:53:44.003Z,97971.75
2022-07-27T06:58:45.992Z,97977.38
2022-07-27T07:03:48.251Z,97972.38
2022-07-27T07:08:50.080Z,97962.84
2022-07-27T07:13:51.983Z,97965.00
2022-07-27T07:18:53.799Z,97971.31
2022-07-27T07:23:55.848Z,97977.16
2022-07-27T07:28:57.707Z,97977.94
2022-07-27T07:33:59.833Z,97976.25
2022-07-27T07:39:01.686Z,97969.75
2022-07-27T07:44:04.139Z,97964.69
2022-07-27T07:49:06.316Z,97973.66
2022-07-27T07:54:08.988Z,97980.81
2022-07-27T07:59:11.299Z,97983.59
2022-07-27T08:04:14.049Z,97982.16
2022-07-27T08:09:17.804Z,97982.09
2022-07-27T08:14:19.621Z,97983.44
2022-07-27T08:19:21.482Z,97990.97
2022-07-27T08:24:23.275Z,97995.56
2022-07-27T08:29:25.152Z,98001.97
2022-07-27T08:34:38.685Z,98003.38
2022-07-27T08:45:03.421Z,98011.84
2022-07-27T08:50:23.215Z,98009.13
2022-07-27T08:55:25.101Z,98011.41
2022-07-27T09:00:27.870Z,98010.69
2022-07-27T09:05:36.985Z,98012.56
2022-07-27T09:10:40.645Z,98020.63
2022-07-27T09:21:22.891Z,98026.09
2022-07-27T09:26:34.390Z,98025.22
2022-07-27T09:31:48.741Z,98022.72
2022-07-27T09:36:55.985Z,98024.00
2022-07-27T09:42:01.365Z,98018.06
2022-07-27T09:47:27.258Z,98015.59
2022-07-27T09:52:30.842Z,98033.06
2022-07-27T09:57:54.393Z,98013.97
2022-07-27T10:02:57.911Z,98015.91
2022-07-27T10:07:59.783Z,98025.47
2022-07-27T10:13:01.605Z,98019.34
2022-07-27T10:18:10.607Z,98015.13
2022-07-27T10:23:34.879Z,98015.75
2022-07-27T10:28:58.490Z,98019.59
2022-07-27T10:34:03.862Z,98019.28
2022-07-27T10:39:06.898Z,98014.84
2022-07-27T10:44:28.600Z,98011.06
2022-07-27T10:49:40.421Z,98017.34
2022-07-27T10:54:45.766Z,98010.75
2022-07-27T11:00:08.087Z,98009.44
2022-07-27T11:05:32.817Z,98006.56
2022-07-27T11:10:44.219Z,98009.66
2022-07-27T11:16:23.940Z,98002.38
2022-07-27T11:21:29.807Z,98013.50
2022-07-27T11:26:43.362Z,98012.56
2022-07-27T11:31:56.534Z,98011.00
2022-07-27T11:37:04.152Z,98013.13
2022-07-27T11:42:09.055Z,98003.41
2022-07-27T11:47:19.410Z,98002.03
2022-07-27T11:52:21.218Z,97999.63
2022-07-27T11:57:32.294Z,97996.28
2022-07-27T12:02:34.185Z,97994.63
2022-07-27T12:07:37.015Z,98000.00
2022-07-27T12:12:38.839Z,97985.06
2022-07-27T12:17:42.810Z,97987.97
2022-07-27T12:22:53.180Z,97982.16
2022-07-27T12:28:08.385Z,97999.66
2022-07-27T12:33:37.333Z,98003.19
2022-07-27T12:38:46.500Z,97981.72
2022-07-27T12:44:10.960Z,97992.06
2022-07-27T12:49:16.700Z,97987.34
2022-07-27T12:54:19.002Z,97967.50
2022-07-27T12:59:23.391Z,97960.59
2022-07-27T13:04:25.241Z,97969.53
2022-07-27T13:10:02.041Z,97968.03
2022-07-27T13:14:48.878Z,97964.78
2022-07-27T13:19:50.724Z,97974.75
2022-07-27T13:24:52.566Z,97975.88
2022-07-27T13:29:56.069Z,97989.25
2022-07-27T13:34:57.932Z,97994.78
2022-07-27T13:40:00.051Z,97992.53
2022-07-27T13:45:11.211Z,97979.44
2022-07-27T13:50:18.753Z,97974.44
2022-07-27T13:55:27.760Z,97973.41
2022-07-27T14:00:29.980Z,97978.88
2022-07-27T14:05:31.996Z,97988.88
2022-07-27T14:10:44.506Z,97975.81
2022-07-27T14:15:53.255Z,97977.28
2022-07-27T14:20:59.373Z,97973.28
2022-07-27T14:26:03.516Z,97962.88
2022-07-27T14:31:10.391Z,97956.44
2022-07-27T14:36:12.230Z,97958.13
2022-07-27T14:41:14.005Z,97951.66
2022-07-27T14:46:15.875Z,97959.09
2022-07-27T14:51:17.758Z,97960.66
2022-07-27T14:56:19.609Z,97965.31
2022-07-27T15:01:21.559Z,97963.84
2022-07-27T15:06:24.008Z,97976.38
2022-07-27T15:11:25.852Z,97973.75
2022-07-27T15:16:27.741Z,97968.13
2022-07-27T15:21:32.304Z,97968.69
2022-07-27T15:26:34.769Z,97965.25
2022-07-27T15:31:37.051Z,97953.28
2022-07-27T15:36:45.917Z,97937.84
2022-07-27T15:41:51.873Z,97927.78
2022-07-27T15:46:54.415Z,97918.38
2022-07-27T15:51:56.291Z,97915.66
2022-07-27T15:56:58.196Z,97911.56
2022-07-27T16:02:00.082Z,97911.94
2022-07-27T16:07:01.929Z,97908.97
2022-07-27T16:12:03.908Z,97906.69
2022-07-27T16:17:05.844Z,97911.13
2022-07-27T16:22:07.727Z,97905.22
2022-07-27T16:27:11.773Z,97899.31
2022-07-27T16:32:13.637Z,97898.28
2022-07-27T16:37:15.439Z,97884.19
2022-07-27T16:42:17.280Z,97888.09
2022-07-27T16:47:21.360Z,97880.50
2022-07-27T16:52:23.183Z,97880.56
2022-07-27T16:57:25.010Z,97885.38
2022-07-27T17:02:30.544Z,97882.75
2022-07-27T17:07:32.595Z,97875.22
2022-07-27T17:12:38.897Z,97876.47
2022-07-27T17:17:41.424Z,97877.34
2022-07-27T17:22:43.268Z,97883.03
2022-07-27T17:27:45.317Z,97876.97
2022-07-27T17:32:47.280Z,97874.00
2022-07-27T17:38:05.570Z,97873.44
2022-07-27T17:43:08.174Z,97878.44
2022-07-27T17:48:10.030Z,97872.47
2022-07-27T17:53:11.864Z,97872.88
2022-07-27T17:58:14.415Z,97871.84
2022-07-27T18:03:17.375Z,97880.53
2022-07-27T18:08:19.354Z,97894.91
2022-07-27T18:13:21.221Z,97902.81
2022-07-27T18:18:25.095Z,97907.06
2022-07-27T18:23:27.273Z,97904.91
2022-07-27T18:28:29.184Z,97907.63
2022-07-27T18:33:36.757Z,97911.03
2022-07-27T18:38:39.341Z,97925.03
2022-07-27T18:43:41.430Z,97933.75
2022-07-27T18:48:44.406Z,97931.25
2022-07-27T18:53:46.356Z,97929.97
2022-07-27T18:58:48.931Z,97941.00
2022-07-27T19:03:50.860Z,97946.81
2022-07-27T19:08:52.749Z,97956.53
2022-07-27T19:13:57.842Z,97965.06
2022-07-27T19:18:59.671Z,97965.91
2022-07-27T19:24:01.489Z,97962.72
2022-07-27T19:29:03.594Z,97963.91
2022-07-27T19:34:05.548Z,97970.91
2022-07-27T19:39:08.288Z,97974.44
2022-07-27T19:44:10.467Z,97968.94
2022-07-27T19:49:12.790Z,97981.41
2022-07-27T19:54:15.105Z,97981.47
2022-07-27T19:59:16.957Z,97983.75
2022-07-27T20:04:18.861Z,97980.19
2022-07-27T20:09:20.735Z,97986.63
2022-07-27T20:14:23.039Z,97989.56
2022-07-27T20:19:29.953Z,97995.84
2022-07-27T20:24:31.891Z,98004.72
2022-07-27T20:29:33.792Z,98002.56
2022-07-27T20:34:35.783Z,98006.97
2022-07-27T20:39:37.569Z,98009.47
2022-07-27T20:44:42.192Z,98005.50
2022-07-27T20:49:44.184Z,97997.50
2022-07-27T20:54:46.027Z,98007.09
2022-07-27T20:59:47.809Z,98015.03
2022-07-27T21:04:49.616Z,98019.25
2022-07-27T21:09:51.436Z,98031.19
2022-07-27T21:14:53.343Z,98039.63
2022-07-27T21:19:57.639Z,98039.69
2022-07-27T21:24:59.483Z,98045.03
2022-07-27T21:30:01.920Z,98042.16
2022-07-27T21:35:06.858Z,98044.19
2022-07-27T21:40:12.274Z,98045.63
2022-07-27T21:45:14.092Z,98054.78
2022-07-27T21:50:16.015Z,98053.19
2022-07-27T21:55:23.092Z,98057.00
2022-07-27T22:00:29.389Z,98058.03
2022-07-27T22:05:31.589Z,98062.41
2022-07-27T22:10:33.438Z,98066.69
2022-07-27T22:15:35.321Z,98060.81
2022-07-27T22:20:37.139Z,98070.97
2022-07-27T22:25:39.485Z,98061.25
2022-07-27T22:30:41.579Z,98059.13
2022-07-27T22:35:44.041Z,98069.03
2022-07-27T22:40:45.960Z,98065.84
2022-07-27T22:45:52.087Z,98075.59
2022-07-27T22:50:54.124Z,98077.25
2022-07-27T22:55:56.345Z,98075.81
2022-07-27T23:00:59.918Z,98079.72
2022-07-27T23:06:01.901Z,98073.06
2022-07-27T23:11:03.793Z,98083.78
2022-07-27T23:16:06.072Z,98081.84
2022-07-27T23:21:09.298Z,98076.97
2022-07-27T23:26:11.725Z,98079.91
2022-07-27T23:31:17.723Z,98072.56
2022-07-27T23:36:19.671Z,98076.78
2022-07-27T23:41:23.452Z,98075.66
2022-07-27T23:46:27.515Z,98075.31
2022-07-27T23:51:29.449Z,98073.34
2022-07-27T23:56:31.250Z,98071.41
